Portada
METAR-TAF:

METAR-TAF

Aeroports :

Oral, Kazakhstan

latitud: 51-15N, longitud: 051-17E, altitud: 36 m

Observació

L'informe es va fer fa 41 minuts, a les 13:00 UTC
Vent 12 kt del Oest/Nord-Oest, variant entre Oest i Nord-Oest
Temperatura 32°C
Humitat 21%
Pressió 1014 hPa
Visibilitat 10 km o més
sense núvols per sota de 1500 mi sense presència de cumulonimbus.

METAR: UARR 211300Z 29006MPS 260V320 CAVOK 32/07 Q1014 R22/CLRD70 NOSIG RMK QFE757/1009

Hora: 18:41 (13:41 UTC)

Pronòstic

L'informe es va fer fa 2 hores i 41 minuts, a les 11:00 UTC
Pronòstic vàlid del 21 a les 12 UTC al 21 a les 21 UTC
Vent 10 kt del Oest/Nord-Oest amb ràfegues de 19 kt
Visibilitat 10 km o més
sense núvols per sota de 1500 mi sense presència de cumulonimbus.
Temporalment
l' 21 a les 17 UTC al 21 a les 21 UTC
Vent 10 kt del Nord/Nord-Oest

TAF: UARR 211100Z 2112/2121 29005G10MPS CAVOK TEMPO 2117/2121 33005MPS

Observacions i pronòstics meteorològics de més de 4000 aeroports (METAR i TAF).

Les estacions disponibles són els punts grocs i vermells al mapa.

Posi el ratolí al punt desitjat per veure el nom de l'estació.

Feu clic per veure les observacions i els pronòstics meteorològics.

Per canviar el mapa: feu clic els botons verds amb una creu de color negre per apropar; al botó verd amb un guió per allunyar la imatge; o en les fletxes verdes per a mapes adjacents.


METAR-TAF: